Time;durP1;ratioP1;P1;durP2;ratioP2;P2;SDS_P1;SDS_P2;PMS_P1;PMS_P2;Temp;Humidity;BMP_temperature;BMP_pressure;BME280_temperature;BME280_humidity;BME280_pressure;Samples;Min_cycle;Max_cycle;Signal;HPM_P1;HPM_P2
2023/12/03 00:00:29;;;;;;;56.67;27.38;;;0.40;99.90;;;;;;5063493;28;20423;-44
2023/12/03 00:02:54;;;;;;;58.90;27.13;;;0.30;99.90;;;;;;5067169;28;20040;-45
2023/12/03 00:05:20;;;;;;;60.00;28.33;;;0.40;99.90;;;;;;5061901;28;20218;-43
2023/12/03 00:07:46;;;;;;;58.45;28.15;;;0.40;99.90;;;;;;5060565;28;20044;-46
2023/12/03 00:10:11;;;;;;;58.22;28.38;;;0.40;99.90;;;;;;5069131;28;20749;-45
2023/12/03 00:12:38;;;;;;;55.60;27.02;;;0.40;99.90;;;;;;5072473;28;20048;-47
2023/12/03 00:15:05;;;;;;;55.28;25.83;;;0.20;99.90;;;;;;5071908;28;20094;-47
2023/12/03 00:17:31;;;;;;;51.90;26.75;;;0.20;99.90;;;;;;5069428;28;20113;-45
2023/12/03 00:19:56;;;;;;;58.50;27.05;;;0.30;99.90;;;;;;5071041;28;20040;-43
2023/12/03 00:22:22;;;;;;;56.63;26.98;;;0.20;99.90;;;;;;5067854;28;20044;-43
2023/12/03 00:24:48;;;;;;;55.92;27.55;;;0.30;99.90;;;;;;5064166;28;20044;-44
2023/12/03 00:27:14;;;;;;;54.03;27.50;;;0.30;99.90;;;;;;5061595;28;20047;-45
2023/12/03 00:29:39;;;;;;;59.53;27.40;;;0.10;99.90;;;;;;5065811;28;20063;-43
2023/12/03 00:32:05;;;;;;;59.88;28.67;;;0.20;99.90;;;;;;5072121;28;20060;-43
2023/12/03 00:34:31;;;;;;;63.25;28.95;;;0.10;99.90;;;;;;5073866;28;20051;-42
2023/12/03 00:36:56;;;;;;;62.17;27.55;;;0.10;99.90;;;;;;5060001;28;20037;-43
2023/12/03 00:39:22;;;;;;;53.25;28.13;;;0.00;99.90;;;;;;5051284;28;20394;-43
2023/12/03 00:41:48;;;;;;;61.17;29.25;;;0.10;99.90;;;;;;5055994;28;20036;-43
2023/12/03 00:44:13;;;;;;;54.22;27.80;;;0.10;99.90;;;;;;5063070;28;20486;-43
2023/12/03 00:46:39;;;;;;;58.47;27.73;;;0.10;99.90;;;;;;5062166;28;20048;-44
2023/12/03 00:49:04;;;;;;;58.65;27.90;;;0.10;99.90;;;;;;5062476;28;20131;-43
2023/12/03 00:51:30;;;;;;;57.22;28.38;;;0.10;99.90;;;;;;5062509;28;20120;-43
2023/12/03 00:53:56;;;;;;;66.63;30.23;;;0.00;99.90;;;;;;5062457;28;20370;-44
2023/12/03 00:56:21;;;;;;;61.78;28.60;;;0.10;99.90;;;;;;5062341;28;20079;-42
2023/12/03 00:58:47;;;;;;;59.40;29.10;;;0.00;99.90;;;;;;5064687;28;20636;-43
2023/12/03 01:01:12;;;;;;;67.25;30.70;;;0.10;99.90;;;;;;5061863;28;20505;-44
2023/12/03 01:03:38;;;;;;;70.68;31.30;;;0.20;99.90;;;;;;5060807;28;20132;-44
2023/12/03 01:06:04;;;;;;;66.78;30.38;;;0.20;99.90;;;;;;5061357;28;20588;-43
2023/12/03 01:08:29;;;;;;;62.85;29.67;;;0.20;99.90;;;;;;5063960;28;20036;-43
2023/12/03 01:10:55;;;;;;;64.07;30.33;;;0.30;99.90;;;;;;5064124;28;20041;-43
2023/12/03 01:13:21;;;;;;;73.35;32.80;;;0.30;99.90;;;;;;5062601;28;20025;-43
2023/12/03 01:15:49;;;;;;;61.10;31.33;;;0.40;99.90;;;;;;5063240;28;20072;-44
2023/12/03 01:18:14;;;;;;;57.92;31.10;;;0.40;99.90;;;;;;5060368;28;20443;-43
2023/12/03 01:20:40;;;;;;;63.33;32.63;;;0.30;99.90;;;;;;5058919;28;20059;-43
2023/12/03 01:23:06;;;;;;;79.00;36.03;;;0.40;99.90;;;;;;5061224;28;20051;-43
2023/12/03 01:25:31;;;;;;;71.00;33.70;;;0.50;99.90;;;;;;5061957;28;20663;-44
2023/12/03 01:27:57;;;;;;;76.28;34.13;;;0.50;99.90;;;;;;5061283;28;20071;-45
2023/12/03 01:30:23;;;;;;;74.47;33.97;;;0.60;99.90;;;;;;5060807;28;21545;-44
2023/12/03 01:32:49;;;;;;;82.00;35.97;;;0.60;99.90;;;;;;5060606;28;20053;-43
2023/12/03 01:35:15;;;;;;;83.25;36.60;;;0.60;99.90;;;;;;5059993;28;20174;-44
2023/12/03 01:37:41;;;;;;;78.85;35.50;;;0.70;99.90;;;;;;5059158;28;20128;-44
2023/12/03 01:40:07;;;;;;;77.40;34.88;;;0.70;99.90;;;;;;5062577;28;20085;-43
2023/12/03 01:42:33;;;;;;;91.85;36.58;;;0.70;99.90;;;;;;5060962;28;20070;-43
2023/12/03 01:44:59;;;;;;;94.85;37.88;;;0.60;99.90;;;;;;5061899;28;20076;-45
2023/12/03 01:47:24;;;;;;;88.15;37.28;;;0.60;99.90;;;;;;5065006;28;20141;-44
2023/12/03 01:49:50;;;;;;;85.60;35.25;;;0.60;99.90;;;;;;5063531;28;20410;-43
2023/12/03 01:52:16;;;;;;;86.43;38.60;;;0.80;99.90;;;;;;5067279;28;20155;-45
2023/12/03 01:54:43;;;;;;;88.63;36.65;;;0.80;99.90;;;;;;5065695;28;20047;-43
2023/12/03 01:57:09;;;;;;;93.68;37.97;;;0.80;99.90;;;;;;5063470;28;20094;-43
2023/12/03 01:59:35;;;;;;;83.07;34.97;;;0.70;99.90;;;;;;5063865;28;20037;-43
2023/12/03 02:02:02;;;;;;;88.07;34.95;;;0.70;99.90;;;;;;5067356;28;20452;-43
2023/12/03 02:04:27;;;;;;;77.80;34.40;;;0.70;99.90;;;;;;5063112;28;20082;-44
2023/12/03 02:06:53;;;;;;;78.43;34.10;;;0.90;99.90;;;;;;5063590;28;20067;-44
2023/12/03 02:09:19;;;;;;;80.18;35.75;;;0.90;99.90;;;;;;5064299;28;20040;-43
2023/12/03 02:11:45;;;;;;;75.85;31.95;;;0.90;99.90;;;;;;5062232;28;20036;-45
2023/12/03 02:14:11;;;;;;;77.63;31.33;;;0.90;99.90;;;;;;5064510;28;20047;-44
2023/12/03 02:16:37;;;;;;;87.20;32.55;;;0.90;99.90;;;;;;5060694;28;20462;-43
2023/12/03 02:19:03;;;;;;;84.65;31.88;;;0.90;99.90;;;;;;5064612;28;20128;-43
2023/12/03 02:21:29;;;;;;;86.93;32.90;;;0.90;99.90;;;;;;5066041;28;20050;-43
2023/12/03 02:23:55;;;;;;;86.63;31.55;;;0.90;99.90;;;;;;5068029;28;20053;-43
2023/12/03 02:26:20;;;;;;;85.13;31.90;;;0.80;99.90;;;;;;5062452;28;20052;-44
2023/12/03 02:28:47;;;;;;;68.68;31.20;;;0.90;99.90;;;;;;5063110;28;20047;-43
2023/12/03 02:31:14;;;;;;;73.60;30.48;;;0.80;99.90;;;;;;5067053;28;20408;-43
2023/12/03 02:33:42;;;;;;;62.95;29.25;;;1.00;99.90;;;;;;5060940;28;20059;-43
2023/12/03 02:36:08;;;;;;;66.15;29.13;;;1.00;99.90;;;;;;5064256;28;20431;-43
2023/12/03 02:38:34;;;;;;;67.93;30.50;;;0.90;99.90;;;;;;5066384;28;20070;-44
2023/12/03 02:40:59;;;;;;;71.13;30.27;;;1.00;99.90;;;;;;5065583;28;20045;-43
2023/12/03 02:43:25;;;;;;;70.38;30.20;;;0.90;99.90;;;;;;5062920;28;21220;-44
2023/12/03 02:45:51;;;;;;;69.93;29.30;;;0.90;99.90;;;;;;5064813;28;20043;-44
2023/12/03 02:48:16;;;;;;;64.32;28.58;;;1.10;99.90;;;;;;5065222;28;20044;-43
2023/12/03 02:50:42;;;;;;;60.08;28.88;;;1.10;99.90;;;;;;5062768;28;20092;-43
2023/12/03 02:53:07;;;;;;;66.75;30.20;;;1.00;99.90;;;;;;5065901;28;20185;-44
2023/12/03 02:55:33;;;;;;;64.40;28.98;;;1.00;99.90;;;;;;5063908;28;20142;-44
2023/12/03 02:57:59;;;;;;;65.22;30.13;;;1.10;99.90;;;;;;5063548;28;20480;-43
2023/12/03 03:00:24;;;;;;;62.10;28.27;;;1.00;99.90;;;;;;5063035;28;20033;-46
2023/12/03 03:02:50;;;;;;;58.60;27.45;;;1.10;99.90;;;;;;5065033;28;20044;-43
2023/12/03 03:05:16;;;;;;;70.78;29.58;;;1.00;99.90;;;;;;5067148;28;20076;-44
2023/12/03 03:07:41;;;;;;;64.82;28.45;;;1.00;99.90;;;;;;5061122;28;20040;-45
2023/12/03 03:10:07;;;;;;;68.15;29.73;;;1.10;99.90;;;;;;5063238;28;20044;-43
2023/12/03 03:12:33;;;;;;;69.45;29.20;;;1.20;99.90;;;;;;5062300;28;20449;-44
2023/12/03 03:14:58;;;;;;;67.05;29.05;;;1.00;99.90;;;;;;5062217;28;20352;-44
2023/12/03 03:17:24;;;;;;;69.82;29.95;;;1.20;99.90;;;;;;5060418;28;20051;-43
2023/12/03 03:19:50;;;;;;;67.10;29.20;;;1.10;99.90;;;;;;5062026;28;20109;-43
2023/12/03 03:22:15;;;;;;;66.55;29.77;;;1.20;99.90;;;;;;5058808;28;20036;-47
2023/12/03 03:24:41;;;;;;;68.63;28.45;;;1.20;99.90;;;;;;5062747;28;20132;-45
2023/12/03 03:27:07;;;;;;;69.93;28.52;;;1.50;99.90;;;;;;5062945;28;20493;-45
2023/12/03 03:29:34;;;;;;;58.83;26.73;;;1.40;99.90;;;;;;5064661;28;20051;-45
2023/12/03 03:32:00;;;;;;;64.50;29.02;;;1.30;99.90;;;;;;5060523;28;20087;-45
2023/12/03 03:34:25;;;;;;;63.45;26.63;;;1.20;99.90;;;;;;5061612;28;20072;-43
2023/12/03 03:36:51;;;;;;;60.13;26.80;;;1.10;99.90;;;;;;5062725;28;20044;-45
2023/12/03 03:39:17;;;;;;;60.63;27.10;;;1.20;99.90;;;;;;5059588;28;20040;-43
2023/12/03 03:41:42;;;;;;;65.10;27.38;;;1.40;99.90;;;;;;5063990;28;20122;-43
2023/12/03 03:44:08;;;;;;;65.13;27.50;;;1.40;99.90;;;;;;5059045;28;20028;-44
2023/12/03 03:46:33;;;;;;;64.85;27.52;;;1.10;99.90;;;;;;5060573;28;20033;-43
2023/12/03 03:48:59;;;;;;;58.67;25.60;;;1.30;99.90;;;;;;5061849;28;20210;-45
2023/12/03 03:51:24;;;;;;;52.75;24.92;;;1.30;99.90;;;;;;5065701;28;20042;-45
2023/12/03 03:53:50;;;;;;;56.95;26.17;;;1.30;99.90;;;;;;5063944;28;20040;-42
2023/12/03 03:56:16;;;;;;;63.22;27.20;;;1.30;99.90;;;;;;5061857;28;20120;-43
2023/12/03 03:58:42;;;;;;;60.67;26.02;;;1.30;99.90;;;;;;5064803;28;20068;-44
2023/12/03 04:01:08;;;;;;;56.42;26.15;;;1.20;99.90;;;;;;5059980;28;20036;-43
2023/12/03 04:03:34;;;;;;;53.33;25.63;;;1.20;99.90;;;;;;5064367;28;20536;-45
2023/12/03 04:06:02;;;;;;;55.75;26.45;;;1.20;99.90;;;;;;5063182;28;20072;-43
2023/12/03 04:08:27;;;;;;;58.88;26.00;;;1.30;99.90;;;;;;5059936;28;20135;-44
2023/12/03 04:10:53;;;;;;;61.25;26.42;;;1.30;99.90;;;;;;5062779;28;20549;-45
2023/12/03 04:13:19;;;;;;;59.00;26.17;;;1.30;99.90;;;;;;5060132;28;20040;-44
2023/12/03 04:15:44;;;;;;;48.88;22.85;;;1.30;99.90;;;;;;5061225;28;20032;-43
2023/12/03 04:18:10;;;;;;;50.05;24.20;;;1.20;99.90;;;;;;5061970;28;20474;-43
2023/12/03 04:20:35;;;;;;;58.72;25.95;;;1.20;99.90;;;;;;5063063;28;20059;-44
2023/12/03 04:23:01;;;;;;;49.05;23.05;;;1.20;99.90;;;;;;5062969;28;20446;-46
2023/12/03 04:25:27;;;;;;;51.30;23.67;;;1.30;99.90;;;;;;5062559;28;20041;-44
2023/12/03 04:27:53;;;;;;;51.50;23.48;;;1.20;99.90;;;;;;5059216;28;20044;-44
2023/12/03 04:30:19;;;;;;;51.05;23.17;;;1.20;99.90;;;;;;5060311;28;20390;-44
2023/12/03 04:32:44;;;;;;;52.58;23.65;;;1.20;99.90;;;;;;5059995;28;20409;-46
2023/12/03 04:35:10;;;;;;;49.67;23.25;;;;;;;;;;5060540;28;20055;-44
2023/12/03 04:37:36;;;;;;;57.65;24.73;;;1.30;99.90;;;;;;5063945;28;20040;-44
2023/12/03 04:40:02;;;;;;;56.47;25.00;;;1.30;99.90;;;;;;5061579;28;20043;-45
2023/12/03 04:42:27;;;;;;;54.88;24.15;;;1.40;99.90;;;;;;5062705;28;20040;-44
2023/12/03 04:44:53;;;;;;;53.75;24.63;;;1.30;99.90;;;;;;5061552;28;20397;-45
2023/12/03 04:47:18;;;;;;;50.33;24.23;;;1.40;99.90;;;;;;5057900;28;20043;-43
2023/12/03 04:49:44;;;;;;;59.40;24.88;;;1.30;99.90;;;;;;5061176;28;20044;-45
2023/12/03 04:52:09;;;;;;;55.83;24.30;;;1.40;99.90;;;;;;5064070;28;20082;-44
2023/12/03 04:54:35;;;;;;;55.63;25.35;;;1.30;99.90;;;;;;5060939;28;20039;-44
2023/12/03 04:57:01;;;;;;;50.53;23.48;;;1.30;99.90;;;;;;5065857;28;20044;-43
2023/12/03 04:59:26;;;;;;;49.15;23.40;;;1.40;99.90;;;;;;5060450;28;20055;-43
2023/12/03 05:01:52;;;;;;;50.63;24.52;;;1.30;99.90;;;;;;5057735;28;20059;-46
2023/12/03 05:04:19;;;;;;;51.30;23.85;;;;;;;;;;5060767;28;20040;-45
2023/12/03 05:06:44;;;;;;;52.03;24.63;;;1.30;99.90;;;;;;5062703;28;20068;-45
2023/12/03 05:09:13;;;;;;;51.47;22.73;;;;;;;;;;5058277;28;20498;-44
2023/12/03 05:11:40;;;;;;;49.80;23.50;;;;;;;;;;5062289;28;20078;-44
2023/12/03 05:14:06;;;;;;;52.77;23.07;;;1.50;99.90;;;;;;5060795;28;20352;-45
2023/12/03 05:16:31;;;;;;;46.58;22.45;;;1.50;99.90;;;;;;5058033;28;20289;-44
2023/12/03 05:18:57;;;;;;;48.92;21.65;;;1.40;99.90;;;;;;5060978;28;20044;-45
2023/12/03 05:21:23;;;;;;;51.85;23.02;;;1.50;99.90;;;;;;5063986;28;20040;-45
2023/12/03 05:23:48;;;;;;;47.50;21.92;;;1.50;99.90;;;;;;5068184;28;20041;-44
2023/12/03 05:26:14;;;;;;;52.42;23.05;;;1.60;99.90;;;;;;5064854;28;20048;-46
2023/12/03 05:28:39;;;;;;;57.08;22.98;;;1.60;99.90;;;;;;5065305;28;20127;-45
2023/12/03 05:31:05;;;;;;;55.90;24.15;;;1.40;99.90;;;;;;5066064;28;20354;-45
2023/12/03 05:33:31;;;;;;;52.72;23.25;;;1.50;99.90;;;;;;5066949;28;20412;-44
2023/12/03 05:35:56;;;;;;;49.50;22.40;;;1.60;99.90;;;;;;5064489;28;20043;-44
2023/12/03 05:38:22;;;;;;;59.20;24.17;;;1.60;99.90;;;;;;5065317;28;20143;-43
2023/12/03 05:40:47;;;;;;;56.45;24.08;;;1.40;99.90;;;;;;5061030;28;20707;-45
2023/12/03 05:43:14;;;;;;;60.35;24.95;;;1.60;99.90;;;;;;5065329;28;20045;-45
2023/12/03 05:45:40;;;;;;;56.72;24.75;;;1.70;99.90;;;;;;5064302;28;21543;-43
2023/12/03 05:48:06;;;;;;;60.28;24.05;;;1.50;99.90;;;;;;5065035;28;20048;-44
2023/12/03 05:50:32;;;;;;;58.38;24.35;;;1.60;99.90;;;;;;5064817;28;20040;-44
2023/12/03 05:52:58;;;;;;;59.30;25.02;;;1.50;99.90;;;;;;5060234;28;20040;-45
2023/12/03 05:55:24;;;;;;;63.25;25.55;;;1.60;99.90;;;;;;5063434;28;20071;-47
2023/12/03 05:57:49;;;;;;;61.22;26.50;;;1.70;99.90;;;;;;5062022;28;20029;-44
2023/12/03 06:00:15;;;;;;;62.92;25.23;;;1.50;99.90;;;;;;5062909;28;20151;-45
2023/12/03 06:02:41;;;;;;;63.55;25.90;;;1.60;99.90;;;;;;5060897;28;20055;-44
2023/12/03 06:05:07;;;;;;;62.38;26.05;;;1.60;99.90;;;;;;5064627;28;20215;-45
2023/12/03 06:07:32;;;;;;;71.47;27.20;;;1.60;99.90;;;;;;5062831;28;20037;-43
2023/12/03 06:09:58;;;;;;;62.30;26.65;;;1.70;99.90;;;;;;5064309;28;20450;-45
2023/12/03 06:12:24;;;;;;;63.03;26.52;;;1.60;99.90;;;;;;5062757;28;20045;-45
2023/12/03 06:14:50;;;;;;;63.38;25.92;;;1.60;99.90;;;;;;5059812;28;20040;-45
2023/12/03 06:17:15;;;;;;;63.15;26.60;;;1.70;99.90;;;;;;5066057;28;20040;-45
2023/12/03 06:19:41;;;;;;;67.30;26.83;;;1.60;99.90;;;;;;5063183;28;20036;-44
2023/12/03 06:22:06;;;;;;;60.55;26.48;;;1.50;99.90;;;;;;5064258;28;20045;-46
2023/12/03 06:24:33;;;;;;;63.78;24.80;;;1.60;99.90;;;;;;5063367;28;20385;-44
2023/12/03 06:26:58;;;;;;;64.10;25.83;;;1.60;99.90;;;;;;5066054;28;20044;-44
2023/12/03 06:29:24;;;;;;;62.50;25.83;;;1.60;99.90;;;;;;5063014;28;20457;-44
2023/12/03 06:31:49;;;;;;;53.50;23.83;;;1.70;99.90;;;;;;5060442;28;20056;-45
2023/12/03 06:34:17;;;;;;;62.53;25.30;;;;;;;;;;5061704;28;20412;-47
2023/12/03 06:36:44;;;;;;;58.25;25.27;;;;;;;;;;5065985;28;20429;-44
2023/12/03 06:39:10;;;;;;;66.80;25.40;;;1.60;99.90;;;;;;5063118;28;20036;-45
2023/12/03 06:41:36;;;;;;;62.65;26.60;;;;;;;;;;5063994;28;20047;-44
2023/12/03 06:44:02;;;;;;;59.80;26.25;;;;;;;;;;5061237;28;20127;-44
2023/12/03 06:46:28;;;;;;;61.22;25.15;;;;;;;;;;5060677;28;20582;-44
2023/12/03 06:48:54;;;;;;;54.22;24.50;;;;;;;;;;5060954;28;20060;-47
2023/12/03 06:51:20;;;;;;;63.55;25.65;;;1.60;99.90;;;;;;5061142;28;20053;-44
2023/12/03 06:53:45;;;;;;;53.75;23.05;;;1.60;99.90;;;;;;5061580;28;20040;-44
2023/12/03 06:56:11;;;;;;;60.42;24.90;;;1.60;99.90;;;;;;5061169;28;20033;-44
2023/12/03 06:58:37;;;;;;;53.10;23.98;;;1.50;99.90;;;;;;5061668;28;20037;-43
2023/12/03 07:01:02;;;;;;;60.15;24.38;;;1.60;99.90;;;;;;5063073;28;20036;-45
2023/12/03 07:03:28;;;;;;;64.55;24.85;;;1.50;99.90;;;;;;5061873;28;20041;-43
2023/12/03 07:05:54;;;;;;;62.40;25.40;;;1.60;99.90;;;;;;5060356;28;20080;-43
2023/12/03 07:08:20;;;;;;;66.53;25.90;;;1.60;99.90;;;;;;5063009;28;20645;-43
2023/12/03 07:10:46;;;;;;;65.57;25.48;;;1.60;99.90;;;;;;5063749;28;20036;-44
2023/12/03 07:13:11;;;;;;;66.00;26.42;;;1.60;99.90;;;;;;5062490;28;20032;-43
2023/12/03 07:15:37;;;;;;;65.47;26.02;;;1.60;99.90;;;;;;5064026;28;20040;-43
2023/12/03 07:18:03;;;;;;;64.60;24.95;;;1.60;99.90;;;;;;5064731;28;20093;-45
2023/12/03 07:20:28;;;;;;;63.50;25.88;;;1.60;99.90;;;;;;5062545;28;20041;-45
2023/12/03 07:22:55;;;;;;;65.18;25.55;;;;;;;;;;5061486;28;20059;-45
2023/12/03 07:25:22;;;;;;;65.45;25.80;;;;;;;;;;5063557;28;20049;-46
2023/12/03 07:27:48;;;;;;;61.45;25.40;;;;;;;;;;5064652;28;20053;-46
2023/12/03 07:30:14;;;;;;;62.00;25.42;;;;;;;;;;5059847;28;20461;-46
2023/12/03 07:32:40;;;;;;;57.78;24.33;;;1.80;99.90;;;;;;5063073;28;20402;-45
2023/12/03 07:35:06;;;;;;;62.15;26.27;;;1.70;99.90;;;;;;5063443;28;20074;-46
2023/12/03 07:37:32;;;;;;;66.00;25.80;;;1.70;99.90;;;;;;5065248;28;20059;-44
2023/12/03 07:39:57;;;;;;;69.57;26.20;;;1.70;99.90;;;;;;5061656;28;20044;-44
2023/12/03 07:42:26;;;;;;;59.97;25.92;;;1.70;99.90;;;;;;5062982;28;20045;-45
2023/12/03 07:44:52;;;;;;;58.50;25.17;;;1.70;99.90;;;;;;5064565;28;20470;-46
2023/12/03 07:47:18;;;;;;;63.83;25.52;;;1.70;99.90;;;;;;5059236;28;20049;-45
2023/12/03 07:49:43;;;;;;;65.38;26.27;;;1.70;99.90;;;;;;5061339;28;20444;-45
2023/12/03 07:52:09;;;;;;;65.18;28.05;;;1.70;99.90;;;;;;5061280;28;20128;-44
2023/12/03 07:54:35;;;;;;;69.30;27.98;;;1.80;99.90;;;;;;5063677;28;20037;-44
2023/12/03 07:57:00;;;;;;;69.93;27.88;;;1.70;99.90;;;;;;5062343;28;20682;-45
2023/12/03 07:59:26;;;;;;;73.88;29.40;;;1.70;99.90;;;;;;5062246;28;20060;-44
2023/12/03 08:01:53;;;;;;;73.60;31.73;;;1.80;99.90;;;;;;5063203;28;20071;-44
2023/12/03 08:04:19;;;;;;;70.53;28.95;;;1.80;99.90;;;;;;5058922;28;20143;-45
2023/12/03 08:06:44;;;;;;;74.10;29.75;;;2.00;99.90;;;;;;5060314;28;20150;-45
2023/12/03 08:09:11;;;;;;;71.22;30.88;;;2.00;99.90;;;;;;5065063;28;20073;-47
2023/12/03 08:11:37;;;;;;;68.82;29.20;;;1.90;99.90;;;;;;5058465;28;20040;-44
2023/12/03 08:14:03;;;;;;;68.47;29.92;;;1.80;99.90;;;;;;5058234;28;20109;-44
2023/12/03 08:16:29;;;;;;;78.07;32.75;;;1.80;99.90;;;;;;5062191;28;20103;-46
2023/12/03 08:18:54;;;;;;;73.13;31.42;;;1.90;99.90;;;;;;5055247;28;20037;-44
2023/12/03 08:21:20;;;;;;;76.82;32.20;;;1.90;99.90;;;;;;5061774;28;20498;-44
2023/12/03 08:23:46;;;;;;;74.47;32.38;;;2.20;99.90;;;;;;5058540;28;20076;-45
2023/12/03 08:26:12;;;;;;;79.43;34.28;;;2.10;99.90;;;;;;5059788;28;20338;-47
2023/12/03 08:28:37;;;;;;;69.32;31.65;;;1.80;99.90;;;;;;5061158;28;20136;-44
2023/12/03 08:31:03;;;;;;;73.85;32.95;;;2.20;99.90;;;;;;5061542;28;20072;-45
2023/12/03 08:33:29;;;;;;;73.90;33.45;;;2.20;99.90;;;;;;5063022;28;20076;-44
2023/12/03 08:35:57;;;;;;;71.90;32.67;;;;;;;;;;5060718;28;20076;-42
2023/12/03 08:38:23;;;;;;;66.13;32.65;;;;;;;;;;5063974;28;20131;-43
2023/12/03 08:40:49;;;;;;;65.60;33.83;;;2.00;99.90;;;;;;5060791;28;20049;-42
2023/12/03 08:43:15;;;;;;;66.82;33.70;;;2.10;99.90;;;;;;5064750;28;20401;-43
2023/12/03 08:45:41;;;;;;;56.45;32.65;;;2.40;99.90;;;;;;5063358;28;20045;-42
2023/12/03 08:48:07;;;;;;;63.60;34.50;;;2.20;99.90;;;;;;5057703;28;21097;-42
2023/12/03 08:50:33;;;;;;;59.63;32.63;;;2.20;99.90;;;;;;5058093;28;20044;-44
2023/12/03 08:52:59;;;;;;;63.42;33.90;;;2.20;99.90;;;;;;5062286;28;20434;-44
2023/12/03 08:55:25;;;;;;;61.03;34.33;;;2.20;99.90;;;;;;5058876;28;20033;-44
2023/12/03 08:57:51;;;;;;;61.72;33.58;;;2.20;99.90;;;;;;5062857;28;20048;-42
2023/12/03 09:00:17;;;;;;;59.50;33.67;;;2.20;99.90;;;;;;5059723;28;20374;-43
2023/12/03 09:02:46;;;;;;;54.70;33.90;;;2.20;99.90;;;;;;5061018;28;20059;-43
2023/12/03 09:05:12;;;;;;;53.97;34.15;;;2.20;99.90;;;;;;5058707;28;20032;-44
2023/12/03 09:07:38;;;;;;;54.67;35.00;;;2.20;99.90;;;;;;5061182;28;20121;-43
2023/12/03 09:10:04;;;;;;;54.45;33.80;;;2.20;99.90;;;;;;5060709;28;20453;-44
2023/12/03 09:12:30;;;;;;;50.08;32.28;;;2.10;99.90;;;;;;5060914;28;20058;-42
2023/12/03 09:14:56;;;;;;;52.50;33.35;;;2.20;99.90;;;;;;5062349;28;20501;-45
2023/12/03 09:17:22;;;;;;;51.03;34.25;;;2.20;99.90;;;;;;5059578;28;20059;-43
2023/12/03 09:19:47;;;;;;;49.40;34.50;;;2.10;99.90;;;;;;5060555;28;20127;-42
2023/12/03 09:22:13;;;;;;;48.97;32.55;;;2.20;99.90;;;;;;5058127;28;20478;-43
2023/12/03 09:24:38;;;;;;;43.25;31.33;;;2.20;99.90;;;;;;5058949;28;20040;-47
2023/12/03 09:27:04;;;;;;;47.03;31.98;;;2.30;99.90;;;;;;5063474;28;20718;-43
2023/12/03 09:29:30;;;;;;;41.58;29.48;;;2.30;99.90;;;;;;5058968;28;20443;-43
2023/12/03 09:31:56;;;;;;;43.67;30.20;;;2.30;99.90;;;;;;5064177;28;20350;-44
2023/12/03 09:34:21;;;;;;;45.78;31.13;;;2.30;99.90;;;;;;5062909;28;20083;-43
2023/12/03 09:36:47;;;;;;;46.58;31.83;;;2.40;99.90;;;;;;5063246;28;20041;-43
2023/12/03 09:39:12;;;;;;;43.28;31.05;;;2.40;99.90;;;;;;5065234;28;20036;-43
2023/12/03 09:41:46;;;;;;;46.38;31.42;;;2.40;99.90;;;;;;5061331;28;20033;-43
2023/12/03 09:44:33;;;;;;;47.00;32.33;;;2.50;99.90;;;;;;5061533;28;20037;-44
2023/12/03 09:47:00;;;;;;;44.67;30.75;;;;;;;;;;5061940;28;20381;-44
2023/12/03 09:49:28;;;;;;;45.17;31.30;;;2.70;99.90;;;;;;5064102;28;20134;-43
2023/12/03 09:52:02;;;;;;;46.88;31.27;;;2.80;99.90;;;;;;5063253;28;20041;-43
2023/12/03 09:54:30;;;;;;;39.10;28.55;;;2.80;99.90;;;;;;5066053;28;20445;-43
2023/12/03 09:56:58;;;;;;;42.63;28.83;;;2.80;99.90;;;;;;5066329;28;20378;-43
2023/12/03 09:59:26;;;;;;;38.50;26.88;;;2.70;99.90;;;;;;5062795;28;20086;-43
2023/12/03 10:01:55;;;;;;;35.55;26.08;;;2.70;99.90;;;;;;5068732;28;20465;-44
2023/12/03 10:04:20;;;;;;;41.83;27.75;;;2.60;99.90;;;;;;5062490;28;20040;-43
2023/12/03 10:06:48;;;;;;;42.13;29.63;;;2.60;99.90;;;;;;5068553;28;20052;-43
2023/12/03 10:09:14;;;;;;;41.25;29.38;;;2.60;99.90;;;;;;5065987;28;20045;-43
2023/12/03 10:11:44;;;;;;;42.63;27.98;;;2.50;99.90;;;;;;5068021;28;20127;-43
2023/12/03 10:14:12;;;;;;;40.17;28.17;;;2.50;99.90;;;;;;5072940;28;20048;-43
2023/12/03 10:16:39;;;;;;;43.45;29.45;;;2.50;99.90;;;;;;5075726;28;20448;-42
2023/12/03 10:19:04;;;;;;;42.83;28.83;;;2.60;99.90;;;;;;5063219;28;20044;-43
2023/12/03 10:21:30;;;;;;;41.60;28.60;;;2.60;99.90;;;;;;5057579;28;20051;-42
2023/12/03 10:24:04;;;;;;;42.92;29.55;;;2.60;99.90;;;;;;5059972;28;20477;-44
2023/12/03 10:26:30;;;;;;;43.45;28.95;;;2.70;99.90;;;;;;5063462;28;20045;-43
2023/12/03 10:28:56;;;;;;;40.08;27.75;;;2.80;99.90;;;;;;5070152;28;20478;-43
2023/12/03 10:31:21;;;;;;;42.65;28.70;;;2.80;99.90;;;;;;5068519;28;20045;-42
2023/12/03 10:33:47;;;;;;;39.95;27.15;;;2.90;99.90;;;;;;5068229;28;20076;-42
2023/12/03 10:36:14;;;;;;;40.53;27.63;;;2.80;99.90;;;;;;5075266;28;20489;-44
2023/12/03 10:38:43;;;;;;;36.78;24.65;;;2.80;99.90;;;;;;5075123;28;20475;-43
2023/12/03 10:41:13;;;;;;;40.28;27.15;;;2.70;99.90;;;;;;5069226;28;20040;-43
2023/12/03 10:43:41;;;;;;;37.58;26.83;;;2.70;99.90;;;;;;5073106;28;20040;-44
2023/12/03 10:46:11;;;;;;;40.83;27.17;;;2.70;99.90;;;;;;5061002;28;20446;-44
2023/12/03 10:48:37;;;;;;;43.05;26.67;;;2.60;99.90;;;;;;5074300;28;20539;-43
2023/12/03 10:51:07;;;;;;;41.55;25.83;;;2.70;99.90;;;;;;5068413;28;20045;-42
2023/12/03 10:53:34;;;;;;;37.75;25.25;;;2.60;99.90;;;;;;5064668;28;20032;-44
2023/12/03 10:56:05;;;;;;;39.65;26.60;;;2.50;99.90;;;;;;5071200;28;20460;-42
2023/12/03 10:58:32;;;;;;;39.45;26.60;;;2.60;99.90;;;;;;5069979;28;20044;-43
2023/12/03 11:01:18;;;;;;;41.28;26.88;;;2.50;99.90;;;;;;5062747;28;20052;-42
2023/12/03 11:03:57;;;;;;;41.95;27.60;;;2.60;99.90;;;;;;5074285;28;20045;-42
2023/12/03 11:06:24;;;;;;;42.00;27.80;;;2.60;99.90;;;;;;5073890;28;20044;-44
2023/12/03 11:08:51;;;;;;;40.78;27.33;;;2.60;99.90;;;;;;5073506;28;20037;-42
2023/12/03 11:11:20;;;;;;;49.70;30.25;;;2.50;99.90;;;;;;5062904;28;20032;-43
2023/12/03 11:13:50;;;;;;;49.75;29.80;;;2.50;99.90;;;;;;5067415;28;20050;-43
2023/12/03 11:16:17;;;;;;;46.35;30.27;;;2.60;99.90;;;;;;5069142;28;20037;-43
2023/12/03 11:18:54;;;;;;;47.50;30.75;;;2.60;99.90;;;;;;5065062;28;20381;-42
2023/12/03 11:21:27;;;;;;;51.03;30.17;;;2.50;99.90;;;;;;5067095;28;20037;-42
2023/12/03 11:24:38;;;;;;;48.63;30.58;;;2.50;99.90;;;;;;5065562;28;20361;-42
2023/12/03 11:27:05;;;;;;;48.78;31.27;;;2.50;99.90;;;;;;5065214;28;20147;-42
2023/12/03 11:29:49;;;;;;;51.03;32.03;;;2.50;99.90;;;;;;5067765;28;20036;-43
2023/12/03 11:32:16;;;;;;;51.75;32.70;;;2.60;99.90;;;;;;5065810;28;20048;-43
2023/12/03 11:34:43;;;;;;;48.35;32.53;;;2.70;99.90;;;;;;5068656;28;20051;-43
2023/12/03 11:37:09;;;;;;;48.95;30.73;;;2.80;99.90;;;;;;5068831;28;20543;-44
2023/12/03 11:39:48;;;;;;;50.22;32.08;;;2.90;99.90;;;;;;5058781;28;20474;-43
2023/12/03 11:42:15;;;;;;;46.55;29.98;;;2.90;99.90;;;;;;5061964;28;20059;-43
2023/12/03 11:44:43;;;;;;;47.28;28.92;;;3.00;99.90;;;;;;5063198;28;20126;-43
2023/12/03 11:47:10;;;;;;;43.65;28.50;;;3.10;99.90;;;;;;5061057;28;21573;-44
2023/12/03 11:49:40;;;;;;;44.75;27.85;;;3.10;99.90;;;;;;5067554;28;20067;-44
2023/12/03 11:52:06;;;;;;;43.47;27.48;;;3.10;99.90;;;;;;5063123;28;20066;-44
2023/12/03 11:54:53;;;;;;;42.45;27.40;;;3.00;99.90;;;;;;5060918;28;20445;-43
2023/12/03 11:57:19;;;;;;;37.67;26.13;;;3.10;99.90;;;;;;5062704;28;20045;-43
2023/12/03 11:59:45;;;;;;;37.70;26.13;;;3.10;99.90;;;;;;5066097;28;20394;-44
2023/12/03 12:02:12;;;;;;;40.58;24.92;;;3.00;99.90;;;;;;5064290;28;20033;-43
2023/12/03 12:04:38;;;;;;;37.08;24.52;;;3.00;99.90;;;;;;5068458;28;20042;-43
2023/12/03 12:07:16;;;;;;;36.15;23.63;;;2.90;99.90;;;;;;5069520;28;20131;-44
2023/12/03 12:09:43;;;;;;;38.92;24.98;;;2.90;99.90;;;;;;5062530;28;20051;-43
2023/12/03 12:12:09;;;;;;;41.75;27.35;;;3.00;99.90;;;;;;5066257;28;20045;-44
2023/12/03 12:14:35;;;;;;;36.75;24.75;;;3.20;99.90;;;;;;5064305;28;20050;-44
2023/12/03 12:17:01;;;;;;;36.10;23.10;;;3.30;99.90;;;;;;5065403;28;20493;-44
2023/12/03 12:19:26;;;;;;;30.60;20.42;;;3.40;99.90;;;;;;5065747;28;20393;-45
2023/12/03 12:21:56;;;;;;;31.15;20.08;;;3.40;99.90;;;;;;5065135;28;20401;-44
2023/12/03 12:24:22;;;;;;;32.25;20.80;;;3.60;99.90;;;;;;5062585;28;20414;-44
2023/12/03 12:26:49;;;;;;;32.63;21.77;;;3.60;99.90;;;;;;5068509;28;20071;-44
2023/12/03 12:29:16;;;;;;;31.88;21.08;;;3.70;99.90;;;;;;5063090;28;20086;-43
2023/12/03 12:31:42;;;;;;;29.50;19.67;;;3.70;99.90;;;;;;5065083;28;20123;-44
2023/12/03 12:34:10;;;;;;;31.38;20.85;;;3.70;99.90;;;;;;5065335;28;20033;-43
2023/12/03 12:36:35;;;;;;;33.05;21.70;;;3.80;99.90;;;;;;5062650;28;21204;-43